sensor_id;sensor_type;location;lat;lon;timestamp;P1;durP1;ratioP1;P2;durP2;ratioP2
38611;SDS011;24368;52.156;20.788;2023-04-30T00:03:19;15.80;;;14.30;;
38611;SDS011;24368;52.156;20.788;2023-04-30T00:08:21;16.80;;;15.10;;
38611;SDS011;24368;52.156;20.788;2023-04-30T00:13:22;15.80;;;14.30;;
38611;SDS011;24368;52.156;20.788;2023-04-30T00:18:23;15.70;;;14.10;;
38611;SDS011;24368;52.156;20.788;2023-04-30T00:23:25;16.30;;;14.40;;
38611;SDS011;24368;52.156;20.788;2023-04-30T00:28:26;16.50;;;14.90;;
38611;SDS011;24368;52.156;20.788;2023-04-30T00:33:27;14.60;;;13.30;;
38611;SDS011;24368;52.156;20.788;2023-04-30T00:38:28;15.70;;;14.30;;
38611;SDS011;24368;52.156;20.788;2023-04-30T00:43:29;16.50;;;14.90;;
38611;SDS011;24368;52.156;20.788;2023-04-30T00:48:31;15.80;;;14.30;;
38611;SDS011;24368;52.156;20.788;2023-04-30T00:53:32;15.20;;;13.80;;
38611;SDS011;24368;52.156;20.788;2023-04-30T00:58:35;14.50;;;13.10;;
38611;SDS011;24368;52.156;20.788;2023-04-30T01:03:36;14.70;;;13.20;;
38611;SDS011;24368;52.156;20.788;2023-04-30T01:08:39;13.10;;;11.90;;
38611;SDS011;24368;52.156;20.788;2023-04-30T01:13:44;14.80;;;13.20;;
38611;SDS011;24368;52.156;20.788;2023-04-30T01:19:18;14.60;;;13.10;;
38611;SDS011;24368;52.156;20.788;2023-04-30T01:24:31;13.80;;;12.70;;
38611;SDS011;24368;52.156;20.788;2023-04-30T01:29:36;13.80;;;12.50;;
38611;SDS011;24368;52.156;20.788;2023-04-30T01:34:42;13.10;;;12.00;;
38611;SDS011;24368;52.156;20.788;2023-04-30T01:39:57;15.50;;;14.10;;
38611;SDS011;24368;52.156;20.788;2023-04-30T01:45:35;14.80;;;13.40;;
38611;SDS011;24368;52.156;20.788;2023-04-30T01:50:43;15.00;;;13.60;;
38611;SDS011;24368;52.156;20.788;2023-04-30T01:55:50;16.00;;;14.50;;
38611;SDS011;24368;52.156;20.788;2023-04-30T02:00:57;15.50;;;14.00;;
38611;SDS011;24368;52.156;20.788;2023-04-30T02:05:58;17.10;;;15.50;;
38611;SDS011;24368;52.156;20.788;2023-04-30T02:10:59;15.40;;;14.00;;
38611;SDS011;24368;52.156;20.788;2023-04-30T02:16:00;14.20;;;12.70;;
38611;SDS011;24368;52.156;20.788;2023-04-30T02:21:01;17.60;;;15.90;;
38611;SDS011;24368;52.156;20.788;2023-04-30T02:26:03;16.10;;;14.30;;
38611;SDS011;24368;52.156;20.788;2023-04-30T02:31:04;15.60;;;14.20;;
38611;SDS011;24368;52.156;20.788;2023-04-30T02:36:06;18.40;;;16.70;;
38611;SDS011;24368;52.156;20.788;2023-04-30T02:41:07;17.10;;;15.40;;
38611;SDS011;24368;52.156;20.788;2023-04-30T02:46:08;15.20;;;13.90;;
38611;SDS011;24368;52.156;20.788;2023-04-30T02:51:09;16.20;;;14.70;;
38611;SDS011;24368;52.156;20.788;2023-04-30T02:56:11;15.90;;;14.50;;
38611;SDS011;24368;52.156;20.788;2023-04-30T03:01:12;15.10;;;13.50;;
38611;SDS011;24368;52.156;20.788;2023-04-30T03:06:14;13.30;;;12.00;;
38611;SDS011;24368;52.156;20.788;2023-04-30T03:11:15;14.30;;;12.50;;
38611;SDS011;24368;52.156;20.788;2023-04-30T03:16:16;13.40;;;12.10;;
38611;SDS011;24368;52.156;20.788;2023-04-30T03:21:19;13.40;;;12.10;;
38611;SDS011;24368;52.156;20.788;2023-04-30T03:26:20;12.00;;;10.80;;
38611;SDS011;24368;52.156;20.788;2023-04-30T03:31:21;13.40;;;12.20;;
38611;SDS011;24368;52.156;20.788;2023-04-30T03:36:22;11.60;;;10.50;;
38611;SDS011;24368;52.156;20.788;2023-04-30T03:41:24;13.10;;;11.50;;
38611;SDS011;24368;52.156;20.788;2023-04-30T03:46:25;13.50;;;12.20;;
38611;SDS011;24368;52.156;20.788;2023-04-30T03:51:26;13.10;;;11.80;;
38611;SDS011;24368;52.156;20.788;2023-04-30T03:56:28;12.00;;;10.90;;
38611;SDS011;24368;52.156;20.788;2023-04-30T04:01:29;14.30;;;11.40;;
38611;SDS011;24368;52.156;20.788;2023-04-30T04:06:30;12.40;;;11.30;;
38611;SDS011;24368;52.156;20.788;2023-04-30T04:11:31;11.60;;;10.60;;
38611;SDS011;24368;52.156;20.788;2023-04-30T04:16:33;13.00;;;11.60;;
38611;SDS011;24368;52.156;20.788;2023-04-30T04:21:35;11.60;;;10.60;;
38611;SDS011;24368;52.156;20.788;2023-04-30T04:26:39;17.40;;;12.00;;
38611;SDS011;24368;52.156;20.788;2023-04-30T04:31:41;13.50;;;12.20;;
38611;SDS011;24368;52.156;20.788;2023-04-30T04:36:42;12.10;;;10.80;;
38611;SDS011;24368;52.156;20.788;2023-04-30T04:41:43;12.40;;;11.10;;
38611;SDS011;24368;52.156;20.788;2023-04-30T04:46:44;13.70;;;11.40;;
38611;SDS011;24368;52.156;20.788;2023-04-30T04:51:45;12.90;;;11.70;;
38611;SDS011;24368;52.156;20.788;2023-04-30T04:56:46;12.40;;;11.20;;
38611;SDS011;24368;52.156;20.788;2023-04-30T05:01:48;20.00;;;17.20;;
38611;SDS011;24368;52.156;20.788;2023-04-30T05:06:49;12.80;;;11.60;;
38611;SDS011;24368;52.156;20.788;2023-04-30T05:11:50;13.50;;;12.20;;
38611;SDS011;24368;52.156;20.788;2023-04-30T05:16:51;13.30;;;11.90;;
38611;SDS011;24368;52.156;20.788;2023-04-30T05:21:52;11.60;;;10.40;;
38611;SDS011;24368;52.156;20.788;2023-04-30T05:26:53;11.00;;;9.90;;
38611;SDS011;24368;52.156;20.788;2023-04-30T05:31:54;14.00;;;12.60;;
38611;SDS011;24368;52.156;20.788;2023-04-30T05:36:55;14.70;;;13.20;;
38611;SDS011;24368;52.156;20.788;2023-04-30T05:41:56;15.60;;;13.90;;
38611;SDS011;24368;52.156;20.788;2023-04-30T05:46:57;16.30;;;14.60;;
38611;SDS011;24368;52.156;20.788;2023-04-30T05:51:59;18.10;;;15.70;;
38611;SDS011;24368;52.156;20.788;2023-04-30T05:57:01;24.10;;;21.60;;
38611;SDS011;24368;52.156;20.788;2023-04-30T06:02:02;18.90;;;16.90;;
38611;SDS011;24368;52.156;20.788;2023-04-30T06:07:03;16.80;;;15.10;;
38611;SDS011;24368;52.156;20.788;2023-04-30T06:12:05;14.50;;;13.20;;
38611;SDS011;24368;52.156;20.788;2023-04-30T06:17:06;17.50;;;15.90;;
38611;SDS011;24368;52.156;20.788;2023-04-30T06:22:07;15.40;;;13.90;;
38611;SDS011;24368;52.156;20.788;2023-04-30T06:27:08;13.90;;;12.50;;
38611;SDS011;24368;52.156;20.788;2023-04-30T06:32:10;14.90;;;13.40;;
38611;SDS011;24368;52.156;20.788;2023-04-30T06:37:11;14.40;;;12.90;;
38611;SDS011;24368;52.156;20.788;2023-04-30T06:42:12;13.80;;;12.50;;
38611;SDS011;24368;52.156;20.788;2023-04-30T06:47:13;9.90;;;8.90;;
38611;SDS011;24368;52.156;20.788;2023-04-30T06:52:14;8.10;;;7.30;;
38611;SDS011;24368;52.156;20.788;2023-04-30T06:57:15;9.20;;;7.20;;
38611;SDS011;24368;52.156;20.788;2023-04-30T07:02:16;8.80;;;7.10;;
38611;SDS011;24368;52.156;20.788;2023-04-30T07:07:18;8.00;;;6.40;;
38611;SDS011;24368;52.156;20.788;2023-04-30T07:12:19;5.40;;;4.90;;
38611;SDS011;24368;52.156;20.788;2023-04-30T07:17:21;5.00;;;4.50;;
38611;SDS011;24368;52.156;20.788;2023-04-30T07:22:23;6.60;;;5.40;;
38611;SDS011;24368;52.156;20.788;2023-04-30T07:27:24;6.90;;;6.00;;
38611;SDS011;24368;52.156;20.788;2023-04-30T07:32:25;5.10;;;4.40;;
38611;SDS011;24368;52.156;20.788;2023-04-30T07:37:27;5.30;;;4.40;;
38611;SDS011;24368;52.156;20.788;2023-04-30T07:42:28;4.40;;;3.90;;
38611;SDS011;24368;52.156;20.788;2023-04-30T07:47:29;3.90;;;3.50;;
38611;SDS011;24368;52.156;20.788;2023-04-30T07:52:30;4.10;;;3.10;;
38611;SDS011;24368;52.156;20.788;2023-04-30T07:57:31;4.50;;;3.30;;
38611;SDS011;24368;52.156;20.788;2023-04-30T08:02:33;3.70;;;2.90;;
38611;SDS011;24368;52.156;20.788;2023-04-30T08:07:34;4.40;;;2.60;;
38611;SDS011;24368;52.156;20.788;2023-04-30T08:12:35;3.90;;;2.30;;
38611;SDS011;24368;52.156;20.788;2023-04-30T08:17:37;3.40;;;2.70;;
38611;SDS011;24368;52.156;20.788;2023-04-30T08:22:38;6.00;;;3.10;;
38611;SDS011;24368;52.156;20.788;2023-04-30T08:27:39;6.90;;;3.10;;
38611;SDS011;24368;52.156;20.788;2023-04-30T08:32:40;3.40;;;2.80;;
38611;SDS011;24368;52.156;20.788;2023-04-30T08:37:41;3.30;;;2.40;;
38611;SDS011;24368;52.156;20.788;2023-04-30T08:42:44;3.50;;;3.20;;
38611;SDS011;24368;52.156;20.788;2023-04-30T08:47:52;4.80;;;2.40;;
38611;SDS011;24368;52.156;20.788;2023-04-30T08:52:58;5.20;;;2.00;;
38611;SDS011;24368;52.156;20.788;2023-04-30T08:58:00;4.00;;;1.80;;
38611;SDS011;24368;52.156;20.788;2023-04-30T09:03:02;4.10;;;2.10;;
38611;SDS011;24368;52.156;20.788;2023-04-30T09:08:05;4.00;;;1.90;;
38611;SDS011;24368;52.156;20.788;2023-04-30T09:13:08;2.50;;;2.20;;
38611;SDS011;24368;52.156;20.788;2023-04-30T09:23:17;2.70;;;1.90;;
38611;SDS011;24368;52.156;20.788;2023-04-30T09:28:18;3.60;;;1.70;;
38611;SDS011;24368;52.156;20.788;2023-04-30T09:33:24;3.40;;;1.50;;
38611;SDS011;24368;52.156;20.788;2023-04-30T09:43:28;3.10;;;2.10;;
38611;SDS011;24368;52.156;20.788;2023-04-30T09:48:30;3.00;;;1.80;;
38611;SDS011;24368;52.156;20.788;2023-04-30T09:53:32;3.50;;;1.80;;
38611;SDS011;24368;52.156;20.788;2023-04-30T09:58:37;7.80;;;5.70;;
38611;SDS011;24368;52.156;20.788;2023-04-30T10:03:39;9.80;;;7.80;;
38611;SDS011;24368;52.156;20.788;2023-04-30T10:08:43;4.70;;;4.10;;
38611;SDS011;24368;52.156;20.788;2023-04-30T10:18:59;4.30;;;2.50;;
38611;SDS011;24368;52.156;20.788;2023-04-30T10:24:22;4.20;;;2.70;;
38611;SDS011;24368;52.156;20.788;2023-04-30T10:29:23;2.10;;;1.70;;
38611;SDS011;24368;52.156;20.788;2023-04-30T10:39:34;2.80;;;1.30;;
38611;SDS011;24368;52.156;20.788;2023-04-30T10:44:37;8.70;;;1.60;;
38611;SDS011;24368;52.156;20.788;2023-04-30T10:49:38;2.40;;;1.40;;
38611;SDS011;24368;52.156;20.788;2023-04-30T10:54:44;2.00;;;0.60;;
38611;SDS011;24368;52.156;20.788;2023-04-30T10:59:51;1.60;;;1.00;;
38611;SDS011;24368;52.156;20.788;2023-04-30T11:05:17;1.90;;;1.20;;
38611;SDS011;24368;52.156;20.788;2023-04-30T11:10:23;1.20;;;1.00;;
38611;SDS011;24368;52.156;20.788;2023-04-30T11:15:26;3.50;;;2.20;;
38611;SDS011;24368;52.156;20.788;2023-04-30T11:20:38;2.40;;;1.40;;
38611;SDS011;24368;52.156;20.788;2023-04-30T11:25:44;1.60;;;0.90;;
38611;SDS011;24368;52.156;20.788;2023-04-30T11:30:56;2.60;;;1.30;;
38611;SDS011;24368;52.156;20.788;2023-04-30T11:35:59;2.70;;;1.50;;
38611;SDS011;24368;52.156;20.788;2023-04-30T11:41:01;3.00;;;1.70;;
38611;SDS011;24368;52.156;20.788;2023-04-30T11:46:08;4.10;;;1.30;;
38611;SDS011;24368;52.156;20.788;2023-04-30T11:51:19;2.00;;;1.30;;
38611;SDS011;24368;52.156;20.788;2023-04-30T11:56:24;4.50;;;3.00;;
38611;SDS011;24368;52.156;20.788;2023-04-30T12:01:27;2.80;;;1.40;;
38611;SDS011;24368;52.156;20.788;2023-04-30T12:06:28;4.50;;;1.20;;
38611;SDS011;24368;52.156;20.788;2023-04-30T12:11:30;2.70;;;1.00;;
38611;SDS011;24368;52.156;20.788;2023-04-30T12:21:40;4.50;;;3.40;;
38611;SDS011;24368;52.156;20.788;2023-04-30T12:26:44;2.50;;;1.00;;
38611;SDS011;24368;52.156;20.788;2023-04-30T12:31:48;3.40;;;1.30;;
38611;SDS011;24368;52.156;20.788;2023-04-30T12:36:50;2.50;;;1.50;;
38611;SDS011;24368;52.156;20.788;2023-04-30T12:41:51;2.40;;;1.80;;
38611;SDS011;24368;52.156;20.788;2023-04-30T12:46:53;2.60;;;1.30;;
38611;SDS011;24368;52.156;20.788;2023-04-30T12:51:57;3.30;;;1.50;;
38611;SDS011;24368;52.156;20.788;2023-04-30T12:57:01;3.20;;;1.40;;
38611;SDS011;24368;52.156;20.788;2023-04-30T13:02:08;1.70;;;1.30;;
38611;SDS011;24368;52.156;20.788;2023-04-30T13:07:11;2.30;;;1.40;;
38611;SDS011;24368;52.156;20.788;2023-04-30T13:12:12;1.90;;;0.90;;
38611;SDS011;24368;52.156;20.788;2023-04-30T13:17:14;1.40;;;1.10;;
38611;SDS011;24368;52.156;20.788;2023-04-30T13:22:15;1.90;;;1.40;;
38611;SDS011;24368;52.156;20.788;2023-04-30T13:27:17;1.90;;;0.90;;
38611;SDS011;24368;52.156;20.788;2023-04-30T13:32:18;1.70;;;1.10;;
38611;SDS011;24368;52.156;20.788;2023-04-30T13:37:19;1.90;;;0.80;;
38611;SDS011;24368;52.156;20.788;2023-04-30T13:42:21;1.80;;;1.00;;
38611;SDS011;24368;52.156;20.788;2023-04-30T13:47:22;1.90;;;1.40;;
38611;SDS011;24368;52.156;20.788;2023-04-30T13:52:23;2.70;;;0.80;;
38611;SDS011;24368;52.156;20.788;2023-04-30T13:57:24;2.30;;;0.90;;
38611;SDS011;24368;52.156;20.788;2023-04-30T14:02:25;1.00;;;0.80;;
38611;SDS011;24368;52.156;20.788;2023-04-30T14:07:30;3.00;;;1.10;;
38611;SDS011;24368;52.156;20.788;2023-04-30T14:12:32;2.20;;;1.40;;
38611;SDS011;24368;52.156;20.788;2023-04-30T14:17:33;2.10;;;1.10;;
38611;SDS011;24368;52.156;20.788;2023-04-30T14:22:34;1.40;;;1.00;;
38611;SDS011;24368;52.156;20.788;2023-04-30T14:27:38;2.30;;;1.10;;
38611;SDS011;24368;52.156;20.788;2023-04-30T14:32:39;1.00;;;0.70;;
38611;SDS011;24368;52.156;20.788;2023-04-30T14:37:41;1.60;;;0.90;;
38611;SDS011;24368;52.156;20.788;2023-04-30T14:42:42;3.70;;;1.20;;
38611;SDS011;24368;52.156;20.788;2023-04-30T14:47:43;2.40;;;1.10;;
38611;SDS011;24368;52.156;20.788;2023-04-30T14:52:44;2.50;;;1.10;;
38611;SDS011;24368;52.156;20.788;2023-04-30T14:57:46;2.60;;;0.90;;
38611;SDS011;24368;52.156;20.788;2023-04-30T15:02:48;1.40;;;0.90;;
38611;SDS011;24368;52.156;20.788;2023-04-30T15:07:49;3.30;;;1.90;;
38611;SDS011;24368;52.156;20.788;2023-04-30T15:12:50;4.00;;;0.80;;
38611;SDS011;24368;52.156;20.788;2023-04-30T15:17:51;2.30;;;1.40;;
38611;SDS011;24368;52.156;20.788;2023-04-30T15:22:52;2.30;;;1.30;;
38611;SDS011;24368;52.156;20.788;2023-04-30T15:27:54;2.70;;;1.00;;
38611;SDS011;24368;52.156;20.788;2023-04-30T15:32:55;2.50;;;1.10;;
38611;SDS011;24368;52.156;20.788;2023-04-30T15:37:56;1.40;;;0.90;;
38611;SDS011;24368;52.156;20.788;2023-04-30T15:42:57;2.30;;;1.00;;
38611;SDS011;24368;52.156;20.788;2023-04-30T15:47:58;2.80;;;1.00;;
38611;SDS011;24368;52.156;20.788;2023-04-30T15:53:00;3.00;;;1.40;;
38611;SDS011;24368;52.156;20.788;2023-04-30T15:58:01;1.90;;;1.40;;
38611;SDS011;24368;52.156;20.788;2023-04-30T16:03:04;1.60;;;1.20;;
38611;SDS011;24368;52.156;20.788;2023-04-30T16:08:06;4.40;;;1.30;;
38611;SDS011;24368;52.156;20.788;2023-04-30T16:13:09;1.90;;;1.40;;
38611;SDS011;24368;52.156;20.788;2023-04-30T16:18:10;2.10;;;1.90;;
38611;SDS011;24368;52.156;20.788;2023-04-30T16:23:11;4.70;;;1.30;;
38611;SDS011;24368;52.156;20.788;2023-04-30T16:28:12;2.00;;;1.40;;
38611;SDS011;24368;52.156;20.788;2023-04-30T16:33:14;3.00;;;1.00;;
38611;SDS011;24368;52.156;20.788;2023-04-30T16:38:15;2.70;;;1.80;;
38611;SDS011;24368;52.156;20.788;2023-04-30T16:43:16;2.90;;;1.00;;
38611;SDS011;24368;52.156;20.788;2023-04-30T16:48:18;2.40;;;1.30;;
38611;SDS011;24368;52.156;20.788;2023-04-30T16:53:19;2.40;;;1.10;;
38611;SDS011;24368;52.156;20.788;2023-04-30T16:58:21;1.70;;;1.20;;
38611;SDS011;24368;52.156;20.788;2023-04-30T17:03:22;8.30;;;3.00;;
38611;SDS011;24368;52.156;20.788;2023-04-30T17:08:23;3.60;;;1.70;;
38611;SDS011;24368;52.156;20.788;2023-04-30T17:13:25;3.40;;;1.70;;
38611;SDS011;24368;52.156;20.788;2023-04-30T17:18:26;2.30;;;1.20;;
38611;SDS011;24368;52.156;20.788;2023-04-30T17:23:28;3.00;;;1.60;;
38611;SDS011;24368;52.156;20.788;2023-04-30T17:28:29;3.30;;;1.30;;
38611;SDS011;24368;52.156;20.788;2023-04-30T17:33:32;1.60;;;1.50;;
38611;SDS011;24368;52.156;20.788;2023-04-30T17:38:33;4.40;;;2.10;;
38611;SDS011;24368;52.156;20.788;2023-04-30T17:43:35;3.70;;;1.50;;
38611;SDS011;24368;52.156;20.788;2023-04-30T17:48:36;13.80;;;9.80;;
38611;SDS011;24368;52.156;20.788;2023-04-30T17:53:37;3.70;;;2.40;;
38611;SDS011;24368;52.156;20.788;2023-04-30T17:58:38;3.00;;;1.60;;
38611;SDS011;24368;52.156;20.788;2023-04-30T18:03:39;2.80;;;1.60;;
38611;SDS011;24368;52.156;20.788;2023-04-30T18:08:42;2.80;;;1.50;;
38611;SDS011;24368;52.156;20.788;2023-04-30T18:13:44;3.70;;;1.50;;
38611;SDS011;24368;52.156;20.788;2023-04-30T18:18:45;6.30;;;1.40;;
38611;SDS011;24368;52.156;20.788;2023-04-30T18:23:48;2.80;;;1.60;;
38611;SDS011;24368;52.156;20.788;2023-04-30T18:28:50;3.50;;;1.70;;
38611;SDS011;24368;52.156;20.788;2023-04-30T18:33:51;3.00;;;2.00;;
38611;SDS011;24368;52.156;20.788;2023-04-30T18:38:52;4.20;;;2.30;;
38611;SDS011;24368;52.156;20.788;2023-04-30T18:43:54;2.40;;;2.20;;
38611;SDS011;24368;52.156;20.788;2023-04-30T18:48:55;3.70;;;2.80;;
38611;SDS011;24368;52.156;20.788;2023-04-30T18:53:57;3.40;;;2.10;;
38611;SDS011;24368;52.156;20.788;2023-04-30T18:58:59;2.70;;;2.00;;
38611;SDS011;24368;52.156;20.788;2023-04-30T19:04:00;5.60;;;2.50;;
38611;SDS011;24368;52.156;20.788;2023-04-30T19:09:03;4.80;;;2.50;;
38611;SDS011;24368;52.156;20.788;2023-04-30T19:14:04;3.70;;;2.10;;
38611;SDS011;24368;52.156;20.788;2023-04-30T19:19:06;6.00;;;2.70;;
38611;SDS011;24368;52.156;20.788;2023-04-30T19:24:07;3.00;;;1.60;;
38611;SDS011;24368;52.156;20.788;2023-04-30T19:29:08;6.50;;;3.60;;
38611;SDS011;24368;52.156;20.788;2023-04-30T19:34:09;2.70;;;2.20;;
38611;SDS011;24368;52.156;20.788;2023-04-30T19:39:10;3.00;;;2.50;;
38611;SDS011;24368;52.156;20.788;2023-04-30T19:44:11;3.60;;;2.00;;
38611;SDS011;24368;52.156;20.788;2023-04-30T19:49:12;3.20;;;1.80;;
38611;SDS011;24368;52.156;20.788;2023-04-30T19:54:14;3.70;;;1.70;;
38611;SDS011;24368;52.156;20.788;2023-04-30T19:59:15;3.30;;;2.30;;
38611;SDS011;24368;52.156;20.788;2023-04-30T20:04:18;4.10;;;2.10;;
38611;SDS011;24368;52.156;20.788;2023-04-30T20:09:20;4.00;;;2.20;;
38611;SDS011;24368;52.156;20.788;2023-04-30T20:14:21;3.60;;;2.50;;
38611;SDS011;24368;52.156;20.788;2023-04-30T20:19:23;4.40;;;2.60;;
38611;SDS011;24368;52.156;20.788;2023-04-30T20:24:25;3.70;;;2.90;;
38611;SDS011;24368;52.156;20.788;2023-04-30T20:29:27;7.20;;;3.50;;
38611;SDS011;24368;52.156;20.788;2023-04-30T20:34:28;4.10;;;2.40;;
38611;SDS011;24368;52.156;20.788;2023-04-30T20:39:30;3.90;;;2.80;;
38611;SDS011;24368;52.156;20.788;2023-04-30T20:44:31;6.60;;;3.70;;
38611;SDS011;24368;52.156;20.788;2023-04-30T20:49:33;5.10;;;3.30;;
38611;SDS011;24368;52.156;20.788;2023-04-30T20:54:34;4.80;;;3.40;;
38611;SDS011;24368;52.156;20.788;2023-04-30T20:59:35;4.00;;;3.20;;
38611;SDS011;24368;52.156;20.788;2023-04-30T21:04:37;9.10;;;5.00;;
38611;SDS011;24368;52.156;20.788;2023-04-30T21:09:38;8.30;;;4.70;;
38611;SDS011;24368;52.156;20.788;2023-04-30T21:14:39;8.50;;;6.10;;
38611;SDS011;24368;52.156;20.788;2023-04-30T21:19:41;11.60;;;6.30;;
38611;SDS011;24368;52.156;20.788;2023-04-30T21:24:43;15.70;;;9.70;;
38611;SDS011;24368;52.156;20.788;2023-04-30T21:29:44;19.60;;;10.50;;
38611;SDS011;24368;52.156;20.788;2023-04-30T21:34:46;18.60;;;11.60;;
38611;SDS011;24368;52.156;20.788;2023-04-30T21:39:47;30.00;;;18.30;;
38611;SDS011;24368;52.156;20.788;2023-04-30T21:44:48;32.40;;;20.00;;
38611;SDS011;24368;52.156;20.788;2023-04-30T21:49:50;34.30;;;20.60;;
38611;SDS011;24368;52.156;20.788;2023-04-30T21:54:51;37.20;;;22.30;;
38611;SDS011;24368;52.156;20.788;2023-04-30T21:59:52;29.00;;;19.90;;
38611;SDS011;24368;52.156;20.788;2023-04-30T22:04:53;32.40;;;21.50;;
38611;SDS011;24368;52.156;20.788;2023-04-30T22:09:56;33.40;;;20.90;;
38611;SDS011;24368;52.156;20.788;2023-04-30T22:14:58;25.20;;;18.10;;
38611;SDS011;24368;52.156;20.788;2023-04-30T22:20:00;24.00;;;16.90;;
38611;SDS011;24368;52.156;20.788;2023-04-30T22:25:01;17.70;;;12.00;;
38611;SDS011;24368;52.156;20.788;2023-04-30T22:30:04;15.00;;;10.60;;
38611;SDS011;24368;52.156;20.788;2023-04-30T22:35:06;16.40;;;9.20;;
38611;SDS011;24368;52.156;20.788;2023-04-30T22:40:10;14.10;;;9.00;;
38611;SDS011;24368;52.156;20.788;2023-04-30T22:45:11;10.70;;;8.40;;
38611;SDS011;24368;52.156;20.788;2023-04-30T22:50:12;10.10;;;7.70;;
38611;SDS011;24368;52.156;20.788;2023-04-30T22:55:13;11.10;;;8.20;;
38611;SDS011;24368;52.156;20.788;2023-04-30T23:00:15;11.20;;;8.00;;
38611;SDS011;24368;52.156;20.788;2023-04-30T23:05:18;9.30;;;7.10;;
38611;SDS011;24368;52.156;20.788;2023-04-30T23:10:19;9.60;;;7.60;;
38611;SDS011;24368;52.156;20.788;2023-04-30T23:15:20;13.30;;;7.80;;
38611;SDS011;24368;52.156;20.788;2023-04-30T23:20:22;10.30;;;7.40;;
38611;SDS011;24368;52.156;20.788;2023-04-30T23:25:23;6.80;;;5.90;;
38611;SDS011;24368;52.156;20.788;2023-04-30T23:30:24;11.50;;;7.00;;
38611;SDS011;24368;52.156;20.788;2023-04-30T23:35:25;10.70;;;6.70;;
38611;SDS011;24368;52.156;20.788;2023-04-30T23:40:27;7.40;;;5.90;;
38611;SDS011;24368;52.156;20.788;2023-04-30T23:45:28;7.50;;;6.70;;
38611;SDS011;24368;52.156;20.788;2023-04-30T23:50:29;8.20;;;6.20;;
38611;SDS011;24368;52.156;20.788;2023-04-30T23:55:30;9.40;;;5.70;;
